createdAt,value
2022-09-15T00:00:28.995Z,14.95
2022-09-15T00:05:30.888Z,17.85
2022-09-15T00:10:32.853Z,22.52
2022-09-15T00:15:34.751Z,17.00
2022-09-15T00:20:40.439Z,15.85
2022-09-15T00:25:48.114Z,17.02
2022-09-15T00:30:52.674Z,16.17
2022-09-15T00:35:54.693Z,14.10
2022-09-15T00:40:58.418Z,17.35
2022-09-15T00:46:00.371Z,17.05
2022-09-15T00:51:05.376Z,18.02
2022-09-15T00:56:11.993Z,14.57
2022-09-15T01:01:16.106Z,17.83
2022-09-15T01:07:01.389Z,17.02
2022-09-15T01:12:04.317Z,18.48
2022-09-15T01:17:09.121Z,15.20
2022-09-15T01:22:38.741Z,14.20
2022-09-15T01:28:01.739Z,13.60
2022-09-15T01:33:49.131Z,16.20
2022-09-15T01:38:56.738Z,22.63
2022-09-15T01:44:07.368Z,18.02
2022-09-15T01:49:14.790Z,19.10
2022-09-15T01:54:20.213Z,22.92
2022-09-15T01:59:22.341Z,18.58
2022-09-15T02:05:06.497Z,16.30
2022-09-15T02:15:24.428Z,20.15
2022-09-15T02:20:33.452Z,21.98
2022-09-15T02:25:44.136Z,17.92
2022-09-15T02:30:48.604Z,21.33
2022-09-15T02:35:52.320Z,15.77
2022-09-15T02:40:54.226Z,22.45
2022-09-15T02:45:56.219Z,20.05
2022-09-15T02:50:58.201Z,22.15
2022-09-15T02:56:00.323Z,15.98
2022-09-15T03:01:06.760Z,22.38
2022-09-15T03:06:19.677Z,19.40
2022-09-15T03:11:23.652Z,21.87
2022-09-15T03:16:27.722Z,19.45
2022-09-15T03:21:30.600Z,19.13
2022-09-15T03:26:32.872Z,21.70
2022-09-15T03:31:34.765Z,17.92
2022-09-15T03:36:36.856Z,23.55
2022-09-15T03:41:38.861Z,23.02
2022-09-15T03:46:41.033Z,23.75
2022-09-15T03:51:43.262Z,22.42
2022-09-15T03:56:48.977Z,24.15
2022-09-15T04:01:50.988Z,26.95
2022-09-15T04:06:53.407Z,23.13
2022-09-15T04:11:55.345Z,24.73
2022-09-15T04:16:57.206Z,21.92
2022-09-15T04:21:59.042Z,19.58
2022-09-15T04:27:01.013Z,19.88
2022-09-15T04:32:03.253Z,27.10
2022-09-15T04:37:05.314Z,29.55
2022-09-15T04:42:07.895Z,31.70
2022-09-15T04:47:09.977Z,24.80
2022-09-15T04:52:11.933Z,22.60
2022-09-15T04:57:14.029Z,20.85
2022-09-15T05:02:16.031Z,22.55
2022-09-15T05:07:18.940Z,20.55
2022-09-15T05:12:21.505Z,21.73
2022-09-15T05:17:26.706Z,23.57
2022-09-15T05:22:28.934Z,25.60
2022-09-15T05:27:32.843Z,24.35
2022-09-15T05:32:35.081Z,26.67
2022-09-15T05:37:36.985Z,22.88
2022-09-15T05:42:38.893Z,24.13
2022-09-15T05:47:41.087Z,23.83
2022-09-15T05:52:43.081Z,18.17
2022-09-15T05:57:45.057Z,17.65
2022-09-15T06:02:46.951Z,14.65
2022-09-15T06:07:48.922Z,25.15
2022-09-15T06:12:53.485Z,31.92
2022-09-15T06:17:55.443Z,37.05
2022-09-15T06:22:57.469Z,31.70
2022-09-15T06:27:59.613Z,22.58
2022-09-15T06:33:01.457Z,26.92
2022-09-15T06:38:03.370Z,19.23
2022-09-15T06:43:05.309Z,17.27
2022-09-15T06:48:23.603Z,18.88
2022-09-15T06:53:29.925Z,18.48
2022-09-15T06:58:33.848Z,20.23
2022-09-15T07:03:37.248Z,19.98
2022-09-15T07:08:40.663Z,15.10
2022-09-15T07:13:42.681Z,12.95
2022-09-15T07:18:45.387Z,15.60
2022-09-15T07:23:48.381Z,17.93
2022-09-15T07:28:56.243Z,15.70
2022-09-15T07:34:02.238Z,19.70
2022-09-15T07:39:11.900Z,14.48
2022-09-15T07:44:19.971Z,13.43
2022-09-15T07:49:21.804Z,16.80
2022-09-15T07:54:23.726Z,14.45
2022-09-15T07:59:26.118Z,15.07
2022-09-15T08:04:28.197Z,13.70
2022-09-15T08:09:30.217Z,12.98
2022-09-15T08:14:32.838Z,11.65
2022-09-15T08:19:35.482Z,13.70
2022-09-15T08:24:37.449Z,11.10
2022-09-15T08:29:39.312Z,16.38
2022-09-15T08:34:41.240Z,14.32
2022-09-15T08:39:43.241Z,11.40
2022-09-15T08:44:48.511Z,12.52
2022-09-15T08:50:22.920Z,14.18
2022-09-15T08:55:45.816Z,15.48
2022-09-15T09:00:58.100Z,13.65
2022-09-15T09:06:24.321Z,17.25
2022-09-15T09:11:50.583Z,12.98
2022-09-15T09:17:17.805Z,11.68
2022-09-15T09:22:31.961Z,17.77
2022-09-15T09:27:35.110Z,14.07
2022-09-15T09:32:56.060Z,12.02
2022-09-15T09:37:59.979Z,15.88
2022-09-15T09:43:02.073Z,12.73
2022-09-15T09:48:24.145Z,14.20
2022-09-15T09:53:31.690Z,10.57
2022-09-15T09:58:33.705Z,8.35
2022-09-15T10:03:37.857Z,16.42
2022-09-15T10:08:57.408Z,7.65
2022-09-15T10:13:59.354Z,13.38
2022-09-15T10:19:01.615Z,12.63
2022-09-15T10:24:33.732Z,9.35
2022-09-15T10:29:42.169Z,7.20
2022-09-15T10:34:44.241Z,9.68
2022-09-15T10:39:57.279Z,10.52
2022-09-15T10:45:34.533Z,10.20
2022-09-15T10:50:57.877Z,9.65
2022-09-15T10:56:02.657Z,10.55
2022-09-15T11:01:16.912Z,12.68
2022-09-15T11:06:24.293Z,12.77
2022-09-15T11:12:11.547Z,8.38
2022-09-15T11:17:23.804Z,5.80
2022-09-15T11:23:02.089Z,4.57
2022-09-15T11:28:18.425Z,7.10
2022-09-15T11:33:40.776Z,7.20
2022-09-15T11:38:54.540Z,5.95
2022-09-15T11:44:26.723Z,5.35
2022-09-15T11:49:40.004Z,5.15
2022-09-15T11:54:48.993Z,8.25
2022-09-15T12:00:00.759Z,6.10
2022-09-15T12:05:28.328Z,11.73
2022-09-15T12:10:41.607Z,5.85
2022-09-15T12:15:45.264Z,8.27
2022-09-15T12:21:18.625Z,7.63
2022-09-15T12:26:26.354Z,8.05
2022-09-15T12:31:37.141Z,6.85
2022-09-15T12:36:44.336Z,7.97
2022-09-15T12:41:50.206Z,7.18
2022-09-15T12:46:57.987Z,7.53
2022-09-15T12:52:03.116Z,6.53
2022-09-15T12:57:06.989Z,12.55
2022-09-15T13:02:43.391Z,6.22
2022-09-15T13:07:56.962Z,8.88
2022-09-15T13:13:32.835Z,9.30
2022-09-15T13:18:44.635Z,7.57
2022-09-15T13:23:51.890Z,9.00
2022-09-15T13:28:56.635Z,8.00
2022-09-15T13:39:48.076Z,10.52
2022-09-15T13:44:56.201Z,7.30
2022-09-15T13:50:10.131Z,9.82
2022-09-15T13:55:25.669Z,6.80
2022-09-15T14:00:33.879Z,12.00
2022-09-15T14:05:37.035Z,11.27
2022-09-15T14:16:00.142Z,8.43
2022-09-15T14:21:05.174Z,7.13
2022-09-15T14:26:13.425Z,9.32
2022-09-15T14:31:15.958Z,7.90
2022-09-15T14:36:31.366Z,6.90
2022-09-15T14:41:33.466Z,10.68
2022-09-15T14:46:36.729Z,7.13
2022-09-15T14:56:42.349Z,8.98
2022-09-15T15:02:21.674Z,5.35
2022-09-15T15:07:32.249Z,6.20
2022-09-15T15:12:47.363Z,4.85
2022-09-15T15:17:54.501Z,8.70
2022-09-15T15:23:15.624Z,6.38
2022-09-15T15:28:34.072Z,9.60
2022-09-15T15:33:36.134Z,9.30
2022-09-15T15:38:51.382Z,10.52
2022-09-15T15:43:58.578Z,7.40
2022-09-15T15:49:01.305Z,8.20
2022-09-15T15:54:03.329Z,9.17
2022-09-15T15:59:06.071Z,10.13
2022-09-15T16:04:08.928Z,7.17
2022-09-15T16:09:13.786Z,7.05
2022-09-15T16:14:15.906Z,6.95
2022-09-15T16:19:18.153Z,8.77
2022-09-15T16:24:21.302Z,13.65
2022-09-15T16:29:27.890Z,14.43
2022-09-15T16:34:29.826Z,22.73
2022-09-15T16:39:31.875Z,74.25
2022-09-15T16:44:40.167Z,122.60
2022-09-15T16:49:51.317Z,56.53
2022-09-15T16:54:53.347Z,19.08
2022-09-15T16:59:55.233Z,18.63
2022-09-15T17:04:57.402Z,17.27
2022-09-15T17:09:59.533Z,19.45
2022-09-15T17:15:01.440Z,13.73
2022-09-15T17:20:05.937Z,13.38
2022-09-15T17:25:23.335Z,15.00
2022-09-15T17:30:30.838Z,18.48
2022-09-15T17:35:35.590Z,15.65
2022-09-15T17:40:38.084Z,19.40
2022-09-15T17:45:40.917Z,16.70
2022-09-15T17:50:44.496Z,31.73
2022-09-15T17:55:47.523Z,18.85
2022-09-15T18:00:50.498Z,18.88
2022-09-15T18:05:53.282Z,23.00
2022-09-15T18:10:56.064Z,13.55
2022-09-15T18:16:04.217Z,25.57
2022-09-15T18:21:16.936Z,18.70
2022-09-15T18:26:24.033Z,15.23
2022-09-15T18:31:28.588Z,19.65
2022-09-15T18:36:32.207Z,13.85
2022-09-15T18:41:37.718Z,16.83
2022-09-15T18:46:40.204Z,13.02
2022-09-15T18:51:57.777Z,15.05
2022-09-15T18:57:00.987Z,15.07
2022-09-15T19:02:03.790Z,14.77
2022-09-15T19:07:08.726Z,21.73
2022-09-15T19:12:11.920Z,13.18
2022-09-15T19:17:14.196Z,20.35
2022-09-15T19:22:16.438Z,16.15
2022-09-15T19:27:25.271Z,20.23
2022-09-15T19:32:34.303Z,15.25
2022-09-15T19:37:38.698Z,13.87
2022-09-15T19:42:42.942Z,15.10
2022-09-15T19:47:44.832Z,13.75
2022-09-15T19:52:46.767Z,13.07
2022-09-15T19:57:49.506Z,14.25
2022-09-15T20:02:51.711Z,14.70
2022-09-15T20:07:53.979Z,17.90
2022-09-15T20:12:55.981Z,10.48
2022-09-15T20:17:57.898Z,15.02
2022-09-15T20:23:00.342Z,12.88
2022-09-15T20:28:02.289Z,12.95
2022-09-15T20:33:04.281Z,12.35
2022-09-15T20:38:06.460Z,10.25
2022-09-15T20:43:08.391Z,11.93
2022-09-15T20:48:10.610Z,10.43
2022-09-15T20:53:12.557Z,10.40
2022-09-15T20:58:15.338Z,10.82
2022-09-15T21:03:17.574Z,13.07
2022-09-15T21:08:19.796Z,15.00
2022-09-15T21:13:26.985Z,9.10
2022-09-15T21:18:34.513Z,11.25
2022-09-15T21:23:45.757Z,10.05
2022-09-15T21:28:48.805Z,10.40
2022-09-15T21:33:52.864Z,11.70
2022-09-15T21:38:56.542Z,11.80
2022-09-15T21:43:59.314Z,10.55
2022-09-15T21:49:01.353Z,10.50
2022-09-15T21:54:03.351Z,8.73
2022-09-15T21:59:05.812Z,10.18
2022-09-15T22:04:10.362Z,10.80
2022-09-15T22:09:17.792Z,16.25
2022-09-15T22:14:21.583Z,17.73
2022-09-15T22:19:23.639Z,12.43
2022-09-15T22:24:26.921Z,12.20
2022-09-15T22:29:28.800Z,16.50
2022-09-15T22:34:31.073Z,13.68
2022-09-15T22:39:57.163Z,11.60
2022-09-15T22:44:54.873Z,11.57
2022-09-15T22:49:56.879Z,12.38
2022-09-15T22:54:58.827Z,16.52
2022-09-15T23:00:00.785Z,13.77
2022-09-15T23:05:02.949Z,13.73
2022-09-15T23:10:06.245Z,14.98
2022-09-15T23:15:08.693Z,14.27
2022-09-15T23:20:11.270Z,14.75
2022-09-15T23:25:13.413Z,11.63
2022-09-15T23:30:15.529Z,13.80
2022-09-15T23:35:17.535Z,16.40
2022-09-15T23:40:19.445Z,15.70
2022-09-15T23:45:21.733Z,15.00
2022-09-15T23:50:23.729Z,16.38
2022-09-15T23:55:26.270Z,13.48
